Time;durP1;ratioP1;P1;durP2;ratioP2;P2;SDS_P1;SDS_P2;PMS_P1;PMS_P2;Temp;Humidity;BMP_temperature;BMP_pressure;BME280_temperature;BME280_humidity;BME280_pressure;Samples;Min_cycle;Max_cycle;Signal;HPM_P1;HPM_P2
2023/08/05 00:00:43;;;;;;;35.00;32.28;;;;;;;;;;5075398;28;20105;-69
2023/08/05 00:03:08;;;;;;;42.85;40.63;;;;;;;;;;5077618;28;20483;-69
2023/08/05 00:05:34;;;;;;;46.33;43.88;;;;;;;;;;5071565;28;20028;-69
2023/08/05 00:07:59;;;;;;;46.75;44.35;;;;;;;;;;5074763;28;20429;-69
2023/08/05 00:10:24;;;;;;;49.95;47.25;;;;;;;;;;5077523;28;20025;-69
2023/08/05 00:12:50;;;;;;;45.85;43.35;;;;;;;;;;5073307;28;20119;-69
2023/08/05 00:15:15;;;;;;;55.45;52.30;;;;;;;;;;5074721;28;20032;-69
2023/08/05 00:17:41;;;;;;;61.05;57.90;;;;;;;;;;5078262;28;20082;-69
2023/08/05 00:20:08;;;;;;;65.10;61.85;;;;;;;;;;5074250;28;20035;-69
2023/08/05 00:22:33;;;;;;;65.43;62.08;;;;;;;;;;5074022;28;20028;-69
2023/08/05 00:24:59;;;;;;;67.00;63.67;;;;;;;;;;5076581;28;20032;-69
2023/08/05 00:27:24;;;;;;;58.25;55.20;;;;;;;;;;5074033;28;20616;-69
2023/08/05 00:29:49;;;;;;;53.97;51.22;;;;;;;;;;5072697;28;20386;-70
2023/08/05 00:32:15;;;;;;;53.13;50.42;;;;;;;;;;5076592;28;20108;-69
2023/08/05 00:34:40;;;;;;;59.58;56.58;;;;;;;;;;5070894;28;20032;-69
2023/08/05 00:37:06;;;;;;;61.28;58.10;;;;;;;;;;5074711;28;20028;-69
2023/08/05 00:39:31;;;;;;;56.38;53.33;;;;;;;;;;5081494;28;20633;-69
2023/08/05 00:41:56;;;;;;;54.67;51.83;;;;;;;;;;5073143;28;20039;-69
2023/08/05 00:44:23;;;;;;;62.92;59.67;;;;;;;;;;5072940;28;20100;-69
2023/08/05 00:46:49;;;;;;;58.83;55.85;;;;;;;;;;5074931;28;20381;-69
2023/08/05 00:49:14;;;;;;;58.72;55.78;;;;;;;;;;5074412;28;20028;-69
2023/08/05 00:51:39;;;;;;;60.28;57.22;;;;;;;;;;5073339;28;20112;-70
2023/08/05 00:54:05;;;;;;;62.70;59.55;;;;;;;;;;5073496;28;20038;-69
2023/08/05 00:56:31;;;;;;;56.33;53.40;;;;;;;;;;5076081;28;20051;-70
2023/08/05 00:58:56;;;;;;;61.47;58.38;;;;;;;;;;5076842;28;20016;-69
2023/08/05 01:01:21;;;;;;;59.88;56.53;;;;;;;;;;5073380;28;20028;-69
2023/08/05 01:03:47;;;;;;;58.45;55.53;;;;;;;;;;5074406;28;20162;-70
2023/08/05 01:06:13;;;;;;;58.42;54.92;;;;;;;;;;5075710;28;20115;-69
2023/08/05 01:08:40;;;;;;;60.13;57.08;;;;;;;;;;5075691;28;20398;-69
2023/08/05 01:11:06;;;;;;;67.72;64.38;;;;;;;;;;5075617;28;20047;-69
2023/08/05 01:13:31;;;;;;;76.97;73.13;;;;;;;;;;5075197;28;20780;-69
2023/08/05 01:15:57;;;;;;;69.40;65.88;;;;;;;;;;5077388;28;20488;-69
2023/08/05 01:18:24;;;;;;;59.20;56.22;;;;;;;;;;5081487;28;20119;-69
2023/08/05 01:20:54;;;;;;;55.85;53.05;;;;;;;;;;5078425;28;20032;-69
2023/08/05 01:23:37;;;;;;;71.07;67.50;;;;;;;;;;5076917;28;20485;-69
2023/08/05 01:26:05;;;;;;;65.13;61.80;;;;;;;;;;5080877;28;20274;-70
2023/08/05 01:28:33;;;;;;;64.25;61.00;;;;;;;;;;5079592;28;20043;-70
2023/08/05 01:31:01;;;;;;;53.45;50.72;;;;;;;;;;5077570;28;20514;-70
2023/08/05 01:33:27;;;;;;;64.10;60.85;;;;;;;;;;5077478;28;20473;-69
2023/08/05 01:35:52;;;;;;;74.95;71.10;;;;;;;;;;5074146;28;20060;-68
2023/08/05 01:38:17;;;;;;;63.50;60.25;;;;;;;;;;5076118;28;20079;-69
2023/08/05 01:40:44;;;;;;;67.57;64.20;;;;;;;;;;5078449;28;20032;-69
2023/08/05 01:43:10;;;;;;;78.00;73.70;;;;;;;;;;5078260;28;20070;-69
2023/08/05 01:45:35;;;;;;;75.78;72.00;;;;;;;;;;5076384;28;20036;-69
2023/08/05 01:48:00;;;;;;;69.18;65.72;;;;;;;;;;5078870;28;21275;-69
2023/08/05 01:50:26;;;;;;;61.92;58.80;;;;;;;;;;5079574;28;20489;-69
2023/08/05 01:52:53;;;;;;;59.50;56.42;;;;;;;;;;5077581;28;20072;-72
2023/08/05 01:55:19;;;;;;;64.00;60.58;;;;;;;;;;5076276;28;20473;-69
2023/08/05 01:57:44;;;;;;;67.50;64.07;;;;;;;;;;5077455;28;20035;-70
2023/08/05 02:00:10;;;;;;;82.72;78.60;;;;;;;;;;5074041;28;20050;-69
2023/08/05 02:02:36;;;;;;;98.18;93.28;;;;;;;;;;5075384;28;20036;-70
2023/08/05 02:05:01;;;;;;;104.05;98.82;;;;;;;;;;5076422;28;20064;-69
2023/08/05 02:07:26;;;;;;;105.70;100.38;;;;;;;;;;5077242;28;20036;-68
2023/08/05 02:09:52;;;;;;;113.75;108.05;;;;;;;;;;5076321;28;20029;-70
2023/08/05 02:12:17;;;;;;;109.72;104.28;;;;;;;;;;5076905;28;20040;-70
2023/08/05 02:14:43;;;;;;;98.43;93.47;;;;;;;;;;5074097;28;20177;-68
2023/08/05 02:17:08;;;;;;;107.57;102.20;;;;;;;;;;5078229;28;20040;-69
2023/08/05 02:19:33;;;;;;;107.95;102.57;;;;;;;;;;5078636;28;20036;-69
2023/08/05 02:21:59;;;;;;;114.47;108.72;;;;;;;;;;5076874;28;20024;-70
2023/08/05 02:24:24;;;;;;;109.30;103.88;;;;;;;;;;5074356;28;20032;-69
2023/08/05 02:26:49;;;;;;;109.03;103.60;;;;;;;;;;5077121;28;20032;-69
2023/08/05 02:29:15;;;;;;;107.72;102.38;;;;;;;;;;5078670;28;20036;-70
2023/08/05 02:31:40;;;;;;;109.57;104.13;;;;;;;;;;5078403;28;20502;-69
2023/08/05 02:34:05;;;;;;;102.28;97.20;;;;;;;;;;5077924;28;20032;-70
2023/08/05 02:36:31;;;;;;;100.60;95.57;;;;;;;;;;5076418;28;20397;-68
2023/08/05 02:38:56;;;;;;;98.15;93.28;;;;;;;;;;5074738;28;20032;-69
2023/08/05 02:41:21;;;;;;;108.53;103.07;;;;;;;;;;5076993;28;20132;-68
2023/08/05 02:43:47;;;;;;;103.43;98.20;;;;;;;;;;5077725;28;20024;-68
2023/08/05 02:46:12;;;;;;;106.80;101.35;;;;;;;;;;5084043;28;20031;-68
2023/08/05 02:48:37;;;;;;;101.55;96.50;;;;;;;;;;5078145;28;20028;-69
2023/08/05 02:51:03;;;;;;;104.00;98.80;;;;;;;;;;5076602;28;20036;-68
2023/08/05 02:53:28;;;;;;;100.95;95.90;;;;;;;;;;5077035;28;20103;-68
2023/08/05 02:55:54;;;;;;;103.85;98.68;;;;;;;;;;5077739;28;20035;-68
2023/08/05 02:58:19;;;;;;;95.13;90.38;;;;;;;;;;5077412;28;20044;-69
2023/08/05 03:00:46;;;;;;;85.05;80.82;;;;;;;;;;5077332;28;20414;-69
2023/08/05 03:03:13;;;;;;;82.72;78.55;;;;;;;;;;5077232;28;20035;-68
2023/08/05 03:05:38;;;;;;;87.85;83.45;;;;;;;;;;5080196;28;20119;-68
2023/08/05 03:08:04;;;;;;;91.93;87.35;;;;;;;;;;5076630;28;20513;-68
2023/08/05 03:10:29;;;;;;;87.60;83.25;;;;;;;;;;5076779;28;20096;-68
2023/08/05 03:12:54;;;;;;;98.00;92.88;;;;;;;;;;5079037;28;20036;-68
2023/08/05 03:15:20;;;;;;;96.90;92.05;;;;;;;;;;5079364;28;20412;-68
2023/08/05 03:17:45;;;;;;;96.18;91.38;;;;;;;;;;5076221;28;20068;-68
2023/08/05 03:20:29;;;;;;;93.97;89.22;;;;;;;;;;5073619;28;20036;-68
2023/08/05 03:22:55;;;;;;;88.97;84.47;;;;;;;;;;5076138;28;20625;-68
2023/08/05 03:25:25;;;;;;;96.03;91.20;;;;;;;;;;5075847;28;20044;-68
2023/08/05 03:27:51;;;;;;;93.35;88.65;;;;;;;;;;5075645;28;20712;-68
2023/08/05 03:30:17;;;;;;;90.60;86.05;;;;;;;;;;5076617;28;20122;-68
2023/08/05 03:32:43;;;;;;;80.43;75.78;;;;;;;;;;5077566;28;20043;-68
2023/08/05 03:35:08;;;;;;;70.20;66.65;;;;;;;;;;5074478;28;20036;-68
2023/08/05 03:37:34;;;;;;;64.78;61.45;;;;;;;;;;5078707;28;20043;-67
2023/08/05 03:39:59;;;;;;;58.00;54.95;;;;;;;;;;5074688;28;20079;-68
2023/08/05 03:42:25;;;;;;;53.35;50.60;;;;;;;;;;5076735;28;20139;-68
2023/08/05 03:44:50;;;;;;;56.30;53.42;;;;;;;;;;5078289;28;20112;-68
2023/08/05 03:47:16;;;;;;;56.45;53.60;;;;;;;;;;5076462;28;20534;-68
2023/08/05 03:49:41;;;;;;;59.00;56.00;;;;;;;;;;5076032;28;20601;-68
2023/08/05 03:52:07;;;;;;;54.25;51.45;;;;;;;;;;5076639;28;20051;-68
2023/08/05 03:54:32;;;;;;;50.08;47.53;;;;;;;;;;5074020;28;20051;-67
2023/08/05 03:56:59;;;;;;;49.67;47.10;;;;;;;;;;5077338;28;20030;-68
2023/08/05 03:59:25;;;;;;;52.38;49.70;;;;;;;;;;5076158;28;20048;-68
2023/08/05 04:01:50;;;;;;;54.38;51.63;;;;;;;;;;5080165;28;20028;-68
2023/08/05 04:04:16;;;;;;;54.30;51.55;;;;;;;;;;5075045;28;20165;-68
2023/08/05 04:06:41;;;;;;;56.78;53.83;;;;;;;;;;5077439;28;20113;-68
2023/08/05 04:09:06;;;;;;;53.05;50.20;;;;;;;;;;5076076;28;20066;-67
2023/08/05 04:11:37;;;;;;;50.17;47.63;;;;;;;;;;5076258;28;20060;-68
2023/08/05 04:14:03;;;;;;;56.15;53.30;;;;;;;;;;5075361;28;20078;-68
2023/08/05 04:16:29;;;;;;;66.15;60.97;;;;;;;;;;5072276;28;20461;-68
2023/08/05 04:18:57;;;;;;;73.10;69.40;;;;;;;;;;5073345;28;20028;-67
2023/08/05 04:21:27;;;;;;;71.97;68.35;;;;;;;;;;5076310;28;20032;-67
2023/08/05 04:23:54;;;;;;;72.77;69.10;;;;;;;;;;5074756;28;20043;-67
2023/08/05 04:26:20;;;;;;;74.43;70.68;;;;;;;;;;5075832;28;20089;-67
2023/08/05 04:28:45;;;;;;;82.70;78.22;;;;;;;;;;5074774;28;20040;-67
2023/08/05 04:31:11;;;;;;;79.15;75.10;;;;;;;;;;5074545;28;20549;-67
2023/08/05 04:33:36;;;;;;;74.15;70.43;;;;;;;;;;5075980;28;20963;-67
2023/08/05 04:36:02;;;;;;;69.63;66.07;;;;;;;;;;5073328;28;20111;-69
2023/08/05 04:38:27;;;;;;;59.97;56.92;;;;;;;;;;5075113;28;20361;-67
2023/08/05 04:40:52;;;;;;;56.78;53.83;;;;;;;;;;5073315;28;20036;-67
2023/08/05 04:43:18;;;;;;;54.15;51.38;;;;;;;;;;5075777;28;20103;-67
2023/08/05 04:45:44;;;;;;;47.10;44.67;;;;;;;;;;5074490;28;20509;-67
2023/08/05 04:48:10;;;;;;;41.80;39.63;;;;;;;;;;5075511;28;20035;-67
2023/08/05 04:50:37;;;;;;;38.75;36.72;;;;;;;;;;5072730;28;20043;-67
2023/08/05 04:53:02;;;;;;;39.15;37.13;;;;;;;;;;5074775;28;20035;-67
2023/08/05 04:55:27;;;;;;;39.47;37.35;;;;;;;;;;5076287;28;20590;-67
2023/08/05 04:57:54;;;;;;;36.10;34.15;;;;;;;;;;5073712;28;20090;-67
2023/08/05 05:00:19;;;;;;;35.20;33.30;;;;;;;;;;5073585;28;20033;-67
2023/08/05 05:02:47;;;;;;;35.78;33.88;;;;;;;;;;5073176;28;20028;-67
2023/08/05 05:05:12;;;;;;;35.97;34.08;;;;;;;;;;5074744;28;20024;-67
2023/08/05 05:07:38;;;;;;;31.40;29.75;;;;;;;;;;5076601;28;20401;-68
2023/08/05 05:10:04;;;;;;;31.98;30.25;;;;;;;;;;5077350;28;20028;-67
2023/08/05 05:12:29;;;;;;;27.23;25.75;;;;;;;;;;5078168;28;20648;-75
2023/08/05 05:14:55;;;;;;;24.13;22.83;;;;;;;;;;5075264;28;20040;-75
2023/08/05 05:17:21;;;;;;;23.23;21.95;;;;;;;;;;5074462;28;20525;-75
2023/08/05 05:19:47;;;;;;;20.98;19.83;;;;;;;;;;5072705;28;20052;-75
2023/08/05 05:22:17;;;;;;;22.73;21.48;;;;;;;;;;5071521;28;20075;-74
2023/08/05 05:24:43;;;;;;;22.75;21.50;;;;;;;;;;5075079;28;20035;-74
2023/08/05 05:27:09;;;;;;;22.40;21.10;;;;;;;;;;5076193;28;20498;-74
2023/08/05 05:29:35;;;;;;;21.67;20.45;;;;;;;;;;5075316;28;20205;-73
2023/08/05 05:32:00;;;;;;;22.55;21.35;;;;;;;;;;5075748;28;20103;-73
2023/08/05 05:34:26;;;;;;;22.67;21.27;;;;;;;;;;5073778;28;20564;-73
2023/08/05 05:36:51;;;;;;;23.35;22.10;;;;;;;;;;5075203;28;20086;-73
2023/08/05 05:39:17;;;;;;;22.58;21.35;;;;;;;;;;5074844;28;20048;-73
2023/08/05 05:41:43;;;;;;;23.92;22.65;;;;;;;;;;5074188;28;20024;-73
2023/08/05 05:44:08;;;;;;;28.02;26.52;;;;;;;;;;5074106;28;20366;-72
2023/08/05 05:46:34;;;;;;;29.30;27.40;;;;;;;;;;5075599;28;20100;-72
2023/08/05 05:48:59;;;;;;;31.55;29.90;;;;;;;;;;5072841;28;20032;-73
2023/08/05 05:51:25;;;;;;;32.80;31.08;;;;;;;;;;5073150;28;20024;-73
2023/08/05 05:53:55;;;;;;;36.15;34.28;;;;;;;;;;5073085;28;20036;-72
2023/08/05 05:56:20;;;;;;;35.35;33.50;;;;;;;;;;5074316;28;20032;-73
2023/08/05 05:58:45;;;;;;;38.95;36.95;;;;;;;;;;5075788;28;20165;-73
2023/08/05 06:01:11;;;;;;;42.45;40.28;;;;;;;;;;5073141;28;20508;-73
2023/08/05 06:03:37;;;;;;;47.10;44.65;;;;;;;;;;5077750;28;20038;-73
2023/08/05 06:06:03;;;;;;;49.00;46.50;;;;;;;;;;5079561;28;20032;-71
2023/08/05 06:08:28;;;;;;;58.47;55.42;;;;;;;;;;5080022;28;20028;-72
2023/08/05 06:10:54;;;;;;;59.85;56.80;;;;;;;;;;5077956;28;20609;-72
2023/08/05 06:13:20;;;;;;;62.65;59.45;;;;;;;;;;5081015;28;20032;-71
2023/08/05 06:15:45;;;;;;;72.10;68.45;;;;;;;;;;5082677;28;20540;-72
2023/08/05 06:18:10;;;;;;;63.08;59.90;;;;;;;;;;5081002;28;20032;-71
2023/08/05 06:20:36;;;;;;;64.45;61.05;;;;;;;;;;5076734;28;20421;-71
2023/08/05 06:23:02;;;;;;;67.40;63.00;;;;;;;;;;5077108;28;20020;-72
2023/08/05 06:25:28;;;;;;;66.55;63.20;;;;;;;;;;5077465;28;20118;-71
2023/08/05 06:27:54;;;;;;;69.03;65.57;;;;;;;;;;5083971;28;20024;-69
2023/08/05 06:30:19;;;;;;;68.53;64.88;;;;;;;;;;5076602;28;20035;-73
2023/08/05 06:32:45;;;;;;;58.35;55.42;;;;;;;;;;5075627;28;20619;-71
2023/08/05 06:35:10;;;;;;;66.70;63.17;;;;;;;;;;5075309;28;20484;-71
2023/08/05 06:37:35;;;;;;;52.88;50.17;;;;;;;;;;5078298;28;20465;-71
2023/08/05 06:40:01;;;;;;;46.10;43.70;;;;;;;;;;5079850;28;20043;-72
2023/08/05 06:42:26;;;;;;;39.92;37.80;;;;;;;;;;5077312;28;20116;-71
2023/08/05 06:44:52;;;;;;;53.03;50.30;;;;;;;;;;5075727;28;20037;-71
2023/08/05 06:47:18;;;;;;;37.92;35.95;;;;;;;;;;5076086;28;20032;-69
2023/08/05 06:49:43;;;;;;;30.55;28.88;;;;;;;;;;5076563;28;20024;-71
2023/08/05 06:52:09;;;;;;;17.25;16.25;;;;;;;;;;5079663;28;20066;-70
2023/08/05 06:54:34;;;;;;;15.98;14.98;;;;;;;;;;5080767;28;20032;-70
2023/08/05 06:57:00;;;;;;;17.67;16.67;;;;;;;;;;5064003;28;20154;-71
2023/08/05 06:59:26;;;;;;;14.45;13.65;;;;;;;;;;5075791;28;20024;-69
2023/08/05 07:01:53;;;;;;;14.18;13.35;;;;;;;;;;5078368;28;20093;-68
2023/08/05 07:04:18;;;;;;;18.15;17.05;;;;;;;;;;5079928;28;20020;-72
2023/08/05 07:06:44;;;;;;;12.80;12.00;;;;;;;;;;5072128;28;20470;-71
2023/08/05 07:09:10;;;;;;;15.82;14.90;;;;;;;;;;5072048;28;20067;-70
2023/08/05 07:11:35;;;;;;;13.43;12.52;;;;;;;;;;5071667;28;20044;-71
2023/08/05 07:14:01;;;;;;;15.05;14.20;;;;;;;;;;5076286;28;20363;-71
2023/08/05 07:16:26;;;;;;;14.93;14.02;;;;;;;;;;5075418;28;20093;-72
2023/08/05 07:18:52;;;;;;;19.35;18.27;;;;;;;;;;5074839;28;20032;-71
2023/08/05 07:21:18;;;;;;;16.23;15.30;;;;;;;;;;5081931;28;20031;-72
2023/08/05 07:23:43;;;;;;;25.70;24.20;;;;;;;;;;5072331;28;20458;-70
2023/08/05 07:26:09;;;;;;;24.88;23.38;;;;;;;;;;5077439;28;20055;-70
2023/08/05 07:28:34;;;;;;;25.92;24.48;;;;;;;;;;5071432;28;20233;-73
2023/08/05 07:31:04;;;;;;;22.63;21.40;;;;;;;;;;5074112;28;20305;-72
2023/08/05 07:33:30;;;;;;;24.47;23.17;;;;;;;;;;5077964;28;20057;-72
2023/08/05 07:35:56;;;;;;;25.25;23.90;;;;;;;;;;5074312;28;20029;-74
2023/08/05 07:38:25;;;;;;;25.35;24.05;;;;;;;;;;5077246;28;20055;-70
2023/08/05 07:40:54;;;;;;;25.67;24.30;;;;;;;;;;5076220;28;20533;-73
2023/08/05 07:43:23;;;;;;;28.77;27.20;;;;;;;;;;5076364;28;20040;-70
2023/08/05 07:45:50;;;;;;;29.08;27.58;;;;;;;;;;5077256;28;20028;-70
2023/08/05 07:48:15;;;;;;;28.58;27.08;;;;;;;;;;5077645;28;20035;-70
2023/08/05 07:50:41;;;;;;;31.17;29.55;;;;;;;;;;5078008;28;20032;-74
2023/08/05 07:53:06;;;;;;;29.75;28.08;;;;;;;;;;5075907;28;20055;-70
2023/08/05 07:55:34;;;;;;;27.83;26.33;;;;;;;;;;5076355;28;20033;-70
2023/08/05 07:57:59;;;;;;;34.72;32.80;;;;;;;;;;5080182;28;20029;-70
2023/08/05 08:00:27;;;;;;;31.98;30.25;;;;;;;;;;5076621;28;20135;-70
2023/08/05 08:02:52;;;;;;;41.42;38.83;;;;;;;;;;5076991;28;20021;-74
2023/08/05 08:05:19;;;;;;;29.80;28.25;;;;;;;;;;5076583;28;20119;-75
2023/08/05 08:07:46;;;;;;;30.80;29.15;;;;;;;;;;5078541;28;20047;-74
2023/08/05 08:10:15;;;;;;;28.80;27.10;;;;;;;;;;5075742;28;20051;-70
2023/08/05 08:12:41;;;;;;;26.88;25.40;;;;;;;;;;5080340;28;20123;-70
2023/08/05 08:15:07;;;;;;;23.25;22.05;;;;;;;;;;5075795;28;20028;-74
2023/08/05 08:17:33;;;;;;;28.77;27.25;;;;;;;;;;5073972;28;20529;-74
2023/08/05 08:19:58;;;;;;;35.05;33.10;;;;;;;;;;5061255;28;20118;-71
2023/08/05 08:22:24;;;;;;;31.70;30.02;;;;;;;;;;5062017;28;20361;-71
2023/08/05 08:24:52;;;;;;;26.27;24.88;;;;;;;;;;5076942;28;20028;-72
2023/08/05 08:27:17;;;;;;;36.22;34.33;;;;;;;;;;5078854;28;20115;-78
2023/08/05 08:29:44;;;;;;;29.10;27.52;;;;;;;;;;5077574;28;20139;-75
2023/08/05 08:32:09;;;;;;;26.00;24.60;;;;;;;;;;5077518;28;20063;-70
2023/08/05 08:34:35;;;;;;;26.52;25.13;;;;;;;;;;5073810;28;20749;-74
2023/08/05 08:37:00;;;;;;;40.03;37.88;;;;;;;;;;5079765;28;20378;-74
2023/08/05 08:39:26;;;;;;;18.63;17.63;;;;;;;;;;5078404;28;20634;-71
2023/08/05 08:41:52;;;;;;;15.48;14.57;;;;;;;;;;5077879;28;20024;-69
2023/08/05 08:44:19;;;;;;;15.85;14.85;;;;;;;;;;5075203;28;20039;-69
2023/08/05 08:46:48;;;;;;;17.33;16.23;;;;;;;;;;5075469;28;20040;-69
2023/08/05 08:49:15;;;;;;;16.50;15.60;;;;;;;;;;5075184;28;20237;-71
2023/08/05 08:51:45;;;;;;;17.52;16.52;;;;;;;;;;5070537;28;20036;-69
2023/08/05 08:54:13;;;;;;;17.40;16.13;;;;;;;;;;5075650;28;20538;-71
2023/08/05 08:56:39;;;;;;;22.20;21.02;;;;;;;;;;5075790;28;20056;-75
2023/08/05 08:59:04;;;;;;;22.20;20.95;;;;;;;;;;5076811;28;20032;-71
2023/08/05 09:01:30;;;;;;;18.98;17.98;;;;;;;;;;5075683;28;20032;-71
2023/08/05 09:03:57;;;;;;;14.88;13.98;;;;;;;;;;5077113;28;20032;-70
2023/08/05 09:06:23;;;;;;;15.18;14.27;;;;;;;;;;5075891;28;20042;-73
2023/08/05 09:08:50;;;;;;;16.33;15.43;;;;;;;;;;5073032;28;20032;-71
2023/08/05 09:11:16;;;;;;;16.85;15.93;;;;;;;;;;5079043;28;20032;-71
2023/08/05 09:13:43;;;;;;;20.98;19.83;;;;;;;;;;5071525;28;20744;-73
2023/08/05 09:16:13;;;;;;;15.10;14.20;;;;;;;;;;5076892;28;20127;-75
2023/08/05 09:18:44;;;;;;;13.95;13.13;;;;;;;;;;5075644;28;20107;-70
2023/08/05 09:21:09;;;;;;;;;;;;;;;;;;5074581;28;20051;-72
2023/08/05 09:23:44;;;;;;;19.63;18.52;;;;;;;;;;5078063;28;20480;-74
2023/08/05 09:26:11;;;;;;;16.92;15.93;;;;;;;;;;5076370;28;20043;-73
2023/08/05 09:28:36;;;;;;;16.17;15.27;;;;;;;;;;5079657;28;20650;-71
2023/08/05 09:31:13;;;;;;;14.85;13.95;;;;;;;;;;5075650;28;20047;-72
2023/08/05 09:33:40;;;;;;;13.98;12.98;;;;;;;;;;5075087;28;20028;-71
2023/08/05 09:36:14;;;;;;;18.95;17.95;;;;;;;;;;5073648;28;20039;-71
2023/08/05 09:38:41;;;;;;;25.90;24.55;;;;;;;;;;5082968;28;20024;-72
2023/08/05 09:41:07;;;;;;;19.27;18.17;;;;;;;;;;5080710;28;20390;-73
2023/08/05 09:43:38;;;;;;;19.40;18.30;;;;;;;;;;5078395;28;20024;-71
2023/08/05 09:46:05;;;;;;;16.73;15.80;;;;;;;;;;5081125;28;20649;-70
2023/08/05 09:48:41;;;;;;;15.52;14.52;;;;;;;;;;5077573;28;20036;-72
2023/08/05 09:51:07;;;;;;;26.15;24.75;;;;;;;;;;5077308;28;20369;-69
2023/08/05 09:53:36;;;;;;;21.92;20.73;;;;;;;;;;5083993;28;20031;-70
2023/08/05 09:56:04;;;;;;;23.92;22.63;;;;;;;;;;5081447;28;20528;-71
2023/08/05 09:58:32;;;;;;;24.27;22.98;;;;;;;;;;5079868;28;20044;-72
2023/08/05 10:00:58;;;;;;;26.27;24.88;;;;;;;;;;5078718;28;20442;-69
2023/08/05 10:03:26;;;;;;;24.02;22.73;;;;;;;;;;5082653;28;20106;-70
2023/08/05 10:05:54;;;;;;;29.67;28.13;;;;;;;;;;5081700;28;20039;-71
2023/08/05 10:08:20;;;;;;;24.55;23.25;;;;;;;;;;5079762;28;20036;-70
2023/08/05 10:10:47;;;;;;;26.13;24.73;;;;;;;;;;5081829;28;20491;-69
2023/08/05 10:13:17;;;;;;;20.67;19.58;;;;;;;;;;5078126;28;20473;-69
2023/08/05 10:15:47;;;;;;;25.30;23.98;;;;;;;;;;5078487;28;20036;-70
2023/08/05 10:18:15;;;;;;;12.02;11.30;;;;;;;;;;5084649;28;20488;-68
2023/08/05 10:20:40;;;;;;;15.70;14.80;;;;;;;;;;5075771;28;20115;-69
2023/08/05 10:23:10;;;;;;;25.73;24.27;;;;;;;;;;5080702;28;20179;-71
2023/08/05 10:25:40;;;;;;;12.20;11.50;;;;;;;;;;5084015;28;20061;-71
2023/08/05 10:28:06;;;;;;;13.18;12.38;;;;;;;;;;5083687;28;20714;-74
2023/08/05 10:30:40;;;;;;;17.38;16.42;;;;;;;;;;5081481;28;20071;-68
2023/08/05 10:33:06;;;;;;;12.38;11.68;;;;;;;;;;5079233;28;20509;-69
2023/08/05 10:35:39;;;;;;;19.13;18.08;;;;;;;;;;5082001;28;20032;-73
2023/08/05 10:38:16;;;;;;;12.75;12.05;;;;;;;;;;5079954;28;20032;-70
2023/08/05 10:40:45;;;;;;;29.98;28.40;;;;;;;;;;5077394;28;20037;-69
2023/08/05 10:43:32;;;;;;;25.85;24.45;;;;;;;;;;5088365;28;20013;-69
2023/08/05 10:45:59;;;;;;;12.55;11.82;;;;;;;;;;5076491;28;20117;-71
2023/08/05 10:48:32;;;;;;;16.05;15.15;;;;;;;;;;5083181;28;20418;-70
2023/08/05 10:50:58;;;;;;;13.38;12.57;;;;;;;;;;5075154;28;20028;-69
2023/08/05 10:53:23;;;;;;;30.15;28.58;;;;;;;;;;5079265;28;20434;-67
2023/08/05 10:55:53;;;;;;;23.63;22.33;;;;;;;;;;5080181;28;20035;-67
2023/08/05 10:58:27;;;;;;;14.50;13.70;;;;;;;;;;5077348;28;20028;-69
2023/08/05 11:01:04;;;;;;;67.70;64.35;;;;;;;;;;5078664;28;20039;-67
2023/08/05 11:03:41;;;;;;;90.30;85.80;;;;;;;;;;5078200;28;20043;-67
2023/08/05 11:06:07;;;;;;;31.58;29.92;;;;;;;;;;5076844;28;20028;-68
2023/08/05 11:08:34;;;;;;;57.35;54.45;;;;;;;;;;5080149;28;20055;-69
2023/08/05 11:11:08;;;;;;;163.90;155.88;;;;;;;;;;5077062;28;20044;-69
2023/08/05 11:13:35;;;;;;;68.22;64.82;;;;;;;;;;5077671;28;20032;-69
2023/08/05 11:16:12;;;;;;;35.40;33.60;;;;;;;;;;5078669;28;20074;-69
2023/08/05 11:18:40;;;;;;;26.58;25.17;;;;;;;;;;5081781;28;20036;-70
2023/08/05 11:21:07;;;;;;;118.05;112.25;;;;;;;;;;5079092;28;20177;-70
2023/08/05 11:23:34;;;;;;;124.68;118.55;;;;;;;;;;5075277;28;20028;-72
2023/08/05 11:26:01;;;;;;;71.13;67.60;;;;;;;;;;5076898;28;20032;-70
2023/08/05 11:28:29;;;;;;;114.00;108.35;;;;;;;;;;5073831;28;20039;-70
2023/08/05 11:30:55;;;;;;;76.07;72.32;;;;;;;;;;5072412;28;20039;-70
2023/08/05 11:33:21;;;;;;;107.00;101.70;;;;;;;;;;5080058;28;20036;-69
2023/08/05 11:35:49;;;;;;;124.97;118.82;;;;;;;;;;5079695;28;20044;-69
2023/08/05 11:38:16;;;;;;;97.35;92.55;;;;;;;;;;5078749;28;20044;-70
2023/08/05 11:40:47;;;;;;;154.45;146.85;;;;;;;;;;5074732;28;20047;-68
2023/08/05 11:43:15;;;;;;;185.48;176.40;;;;;;;;;;5079939;28;20028;-69
2023/08/05 11:45:40;;;;;;;186.88;177.55;;;;;;;;;;5074451;28;20052;-69
2023/08/05 11:48:15;;;;;;;166.40;158.27;;;;;;;;;;5075941;28;20047;-69
2023/08/05 11:50:41;;;;;;;163.65;155.63;;;;;;;;;;5074727;28;20031;-70
2023/08/05 11:53:06;;;;;;;165.43;157.32;;;;;;;;;;5080526;28;20031;-68
2023/08/05 11:55:46;;;;;;;184.52;175.55;;;;;;;;;;5079314;28;20051;-69
2023/08/05 11:58:13;;;;;;;115.03;109.40;;;;;;;;;;5076883;28;20126;-69
2023/08/05 12:00:47;;;;;;;99.75;94.85;;;;;;;;;;5081398;28;20289;-69
2023/08/05 12:03:13;;;;;;;141.18;134.25;;;;;;;;;;5076203;28;20392;-68
2023/08/05 12:05:43;;;;;;;143.88;136.82;;;;;;;;;;5078703;28;20047;-70
2023/08/05 12:08:09;;;;;;;82.60;78.53;;;;;;;;;;5076984;28;20028;-72
2023/08/05 12:10:34;;;;;;;95.43;90.75;;;;;;;;;;5074582;28;20035;-71
2023/08/05 12:13:04;;;;;;;123.07;117.03;;;;;;;;;;5075940;28;20039;-69
2023/08/05 12:15:30;;;;;;;73.32;69.68;;;;;;;;;;5075905;28;20044;-69
2023/08/05 12:18:03;;;;;;;101.55;96.57;;;;;;;;;;5076340;28;20040;-69
2023/08/05 12:20:36;;;;;;;38.00;35.97;;;;;;;;;;5077045;28;20051;-69
2023/08/05 12:23:03;;;;;;;63.97;60.78;;;;;;;;;;5077326;28;20054;-69
2023/08/05 12:25:30;;;;;;;48.22;45.80;;;;;;;;;;5074552;28;20032;-69
2023/08/05 12:27:56;;;;;;;25.45;24.08;;;;;;;;;;5056465;28;20032;-69
2023/08/05 12:30:22;;;;;;;17.52;16.52;;;;;;;;;;5074818;28;20378;-69
2023/08/05 12:32:47;;;;;;;17.33;16.33;;;;;;;;;;5076516;28;20028;-69
2023/08/05 12:35:13;;;;;;;20.85;19.73;;;;;;;;;;5077305;28;20057;-68
2023/08/05 12:37:39;;;;;;;12.20;11.50;;;;;;;;;;5079738;28;20570;-69
2023/08/05 12:40:06;;;;;;;12.90;12.10;;;;;;;;;;5074097;28;20350;-69
2023/08/05 12:42:35;;;;;;;15.85;14.95;;;;;;;;;;5073962;28;20036;-69
2023/08/05 12:45:05;;;;;;;12.88;12.10;;;;;;;;;;5073994;28;20028;-69
2023/08/05 12:47:31;;;;;;;13.90;13.00;;;;;;;;;;5075366;28;20029;-69
2023/08/05 12:49:56;;;;;;;29.95;28.35;;;;;;;;;;5073457;28;20032;-69
2023/08/05 12:52:22;;;;;;;49.88;47.35;;;;;;;;;;5077446;28;20038;-69
2023/08/05 12:54:47;;;;;;;13.95;13.13;;;;;;;;;;5077636;28;20396;-68
2023/08/05 12:57:12;;;;;;;25.83;24.48;;;;;;;;;;5079171;28;20039;-68
2023/08/05 12:59:38;;;;;;;14.15;13.35;;;;;;;;;;5078263;28;20039;-69
2023/08/05 13:02:03;;;;;;;13.02;12.25;;;;;;;;;;5075846;28;20040;-68
2023/08/05 13:04:29;;;;;;;46.58;44.20;;;;;;;;;;5072634;28;20040;-68
2023/08/05 13:06:57;;;;;;;38.33;36.15;;;;;;;;;;5074754;28;20028;-72
2023/08/05 13:09:26;;;;;;;32.47;30.77;;;;;;;;;;5075173;28;20038;-73
2023/08/05 13:11:51;;;;;;;36.88;34.97;;;;;;;;;;5077744;28;20111;-72
2023/08/05 13:14:17;;;;;;;17.85;16.85;;;;;;;;;;5083645;28;20185;-72
2023/08/05 13:16:42;;;;;;;11.70;11.00;;;;;;;;;;5084572;28;20079;-71
2023/08/05 13:19:08;;;;;;;14.93;14.02;;;;;;;;;;5085532;28;20036;-71
2023/08/05 13:21:34;;;;;;;13.88;13.07;;;;;;;;;;5077508;28;20028;-71
2023/08/05 13:24:02;;;;;;;12.80;12.00;;;;;;;;;;5083754;28;20136;-73
2023/08/05 13:26:28;;;;;;;12.63;11.93;;;;;;;;;;5084768;28;20050;-72
2023/08/05 13:28:53;;;;;;;68.13;64.18;;;;;;;;;;5084626;28;20056;-71
2023/08/05 13:31:19;;;;;;;19.55;18.48;;;;;;;;;;5082593;28;20121;-72
2023/08/05 13:33:44;;;;;;;104.30;99.18;;;;;;;;;;5084019;28;20036;-72
2023/08/05 13:36:11;;;;;;;102.93;97.85;;;;;;;;;;5082309;28;20123;-71
2023/08/05 13:38:36;;;;;;;33.80;32.05;;;;;;;;;;5080173;28;20037;-70
2023/08/05 13:41:01;;;;;;;172.85;164.43;;;;;;;;;;5076174;28;20050;-71
2023/08/05 13:43:27;;;;;;;132.60;125.97;;;;;;;;;;5076758;28;20446;-73
2023/08/05 13:45:56;;;;;;;188.57;179.32;;;;;;;;;;5079304;28;21654;-73
2023/08/05 13:48:24;;;;;;;180.47;171.70;;;;;;;;;;5076025;28;20040;-71
2023/08/05 13:51:02;;;;;;;186.60;177.52;;;;;;;;;;5077578;28;20116;-74
2023/08/05 13:53:27;;;;;;;181.55;172.60;;;;;;;;;;5077480;28;20438;-74
2023/08/05 13:55:56;;;;;;;156.95;149.25;;;;;;;;;;5078927;28;20581;-68
2023/08/05 13:58:22;;;;;;;143.17;136.00;;;;;;;;;;5079963;28;20459;-70
2023/08/05 14:00:47;;;;;;;160.68;152.77;;;;;;;;;;5079092;28;20138;-73
2023/08/05 14:03:13;;;;;;;176.95;168.32;;;;;;;;;;5077833;28;20031;-73
2023/08/05 14:05:38;;;;;;;166.93;158.75;;;;;;;;;;5076234;28;20050;-68
2023/08/05 14:08:03;;;;;;;167.38;159.20;;;;;;;;;;5079398;28;20038;-68
2023/08/05 14:10:29;;;;;;;146.93;139.68;;;;;;;;;;5078228;28;20023;-68